Time;durP1;ratioP1;P1;durP2;ratioP2;P2;SDS_P1;SDS_P2;PMS_P1;PMS_P2;Temp;Humidity;BMP_temperature;BMP_pressure;BME280_temperature;BME280_humidity;BME280_pressure;Samples;Min_cycle;Max_cycle;Signal;HPM_P1;HPM_P2
2023/05/07 00:32:30;;;;;;;9.20;7.70;;;;;;;7.61;95.72;101085.70;105598;1251;83504;-62
2023/05/07 00:34:58;;;;;;;10.90;8.10;;;;;;;7.62;95.83;101084.12;105664;1250;72653;-62
2023/05/07 00:37:26;;;;;;;9.90;7.90;;;;;;;7.66;95.99;101085.80;105526;1256;69120;-62
2023/05/07 00:39:55;;;;;;;10.40;7.70;;;;;;;7.68;95.95;101089.77;105601;1253;69195;-62
2023/05/07 00:42:23;;;;;;;10.80;8.10;;;;;;;7.68;96.13;101091.33;105568;1254;74615;-63
2023/05/07 00:44:52;;;;;;;10.10;7.60;;;;;;;7.71;95.98;101088.51;105638;1250;82943;-63
2023/05/07 00:47:20;;;;;;;8.80;7.50;;;;;;;7.72;95.82;101090.39;105459;1253;72876;-62
2023/05/07 00:49:48;;;;;;;10.10;7.90;;;;;;;7.73;95.63;101086.92;105572;1256;69216;-62
2023/05/07 00:52:17;;;;;;;10.40;7.40;;;;;;;7.75;95.59;101087.41;105497;1254;69166;-63
2023/05/07 00:54:46;;;;;;;9.30;7.50;;;;;;;7.77;95.64;101091.39;105577;1256;74350;-62
2023/05/07 00:57:15;;;;;;;11.40;7.40;;;;;;;7.77;95.10;101095.73;105496;1256;83439;-63
2023/05/07 00:59:43;;;;;;;8.50;7.30;;;;;;;7.75;95.16;101094.36;105668;1256;73218;-63
2023/05/07 01:02:11;;;;;;;9.90;8.00;;;;;;;7.73;94.94;101095.26;105490;1250;69086;-62
2023/05/07 01:04:40;;;;;;;10.00;8.10;;;;;;;7.71;94.94;101096.88;105634;1250;69167;-62
2023/05/07 01:07:09;;;;;;;10.00;7.50;;;;;;;7.72;95.02;101098.24;105598;1254;74990;-62
2023/05/07 01:09:38;;;;;;;8.80;7.10;;;;;;;7.70;94.80;101095.66;105501;1250;82520;-62
2023/05/07 01:12:07;;;;;;;10.40;7.90;;;;;;;7.69;94.87;101096.88;105524;1250;72684;-62
2023/05/07 01:14:35;;;;;;;10.60;8.00;;;;;;;7.67;94.84;101104.21;105507;1256;69185;-62
2023/05/07 01:17:04;;;;;;;9.70;7.80;;;;;;;7.68;95.04;101097.61;105541;1250;69168;-62
2023/05/07 01:19:32;;;;;;;10.90;8.00;;;;;;;7.66;95.01;101093.97;105536;1251;74881;-62
2023/05/07 01:22:08;;;;;;;9.60;7.80;;;;;;;7.66;95.11;101096.05;105530;1250;83891;-62
2023/05/07 01:24:45;;;;;;;11.30;7.70;;;;;;;7.65;95.09;101096.95;105526;1255;72523;-62
2023/05/07 01:27:14;;;;;;;10.50;7.40;;;;;;;7.64;94.82;101101.30;105546;1250;69182;-62
2023/05/07 01:29:42;;;;;;;9.50;7.10;;;;;;;7.60;94.77;101102.22;105452;1251;69178;-62
2023/05/07 01:32:12;;;;;;;11.60;7.50;;;;;;;7.63;95.47;101108.27;105657;1250;74556;-62
2023/05/07 01:34:40;;;;;;;10.30;7.40;;;;;;;7.63;95.00;101104.11;105538;1256;82481;-62
2023/05/07 01:37:08;;;;;;;8.40;6.90;;;;;;;7.63;95.10;101109.50;105532;1256;73950;-62
2023/05/07 01:39:39;;;;;;;10.70;7.10;;;;;;;7.65;95.14;101112.95;105466;1251;69478;-62
2023/05/07 01:42:07;;;;;;;9.90;7.20;;;;;;;7.66;95.03;101110.15;105558;1250;69247;-62
2023/05/07 01:44:36;;;;;;;8.90;6.90;;;;;;;7.64;94.76;101112.26;105541;1254;73806;-62
2023/05/07 01:47:05;;;;;;;9.00;6.90;;;;;;;7.66;94.62;101112.23;105488;1250;83548;-62
2023/05/07 01:49:34;;;;;;;10.20;6.90;;;;;;;7.66;94.90;101111.03;105509;1250;73725;-62
2023/05/07 01:52:03;;;;;;;7.50;6.30;;;;;;;7.65;94.66;101114.16;105590;1250;69171;-62
2023/05/07 01:54:31;;;;;;;9.80;7.20;;;;;;;7.65;94.68;101118.69;105356;1250;69754;-62
2023/05/07 01:57:00;;;;;;;7.80;6.50;;;;;;;7.61;94.33;101122.39;105522;1254;74890;-62
2023/05/07 01:59:28;;;;;;;8.40;6.40;;;;;;;7.59;94.47;101119.80;105549;1250;83712;-62
2023/05/07 02:01:56;;;;;;;10.70;6.40;;;;;;;7.58;94.45;101116.86;105442;1256;73919;-62
2023/05/07 02:04:24;;;;;;;7.30;6.50;;;;;;;7.60;94.77;101120.84;105429;1253;69116;-62
2023/05/07 02:06:54;;;;;;;9.90;6.60;;;;;;;7.62;94.88;101116.82;105595;1250;69091;-62
2023/05/07 02:09:23;;;;;;;11.30;7.10;;;;;;;7.61;94.67;101119.79;105574;1251;75024;-62
2023/05/07 02:11:52;;;;;;;8.70;6.60;;;;;;;7.59;94.68;101118.59;105702;1250;82278;-62
2023/05/07 02:14:22;;;;;;;10.80;6.30;;;;;;;7.61;94.43;101119.09;105527;1250;73367;-62
2023/05/07 02:16:50;;;;;;;11.60;6.40;;;;;;;7.61;94.48;101119.09;105519;1250;69074;-62
2023/05/07 02:19:20;;;;;;;8.90;6.20;;;;;;;7.62;94.64;101124.30;105520;1250;69084;-62
2023/05/07 02:21:49;;;;;;;8.30;6.70;;;;;;;7.58;94.30;101123.48;105554;1251;75890;-62
2023/05/07 02:24:17;;;;;;;9.10;6.80;;;;;;;7.56;94.40;101123.31;105587;1250;83369;-62
2023/05/07 02:26:46;;;;;;;9.00;6.60;;;;;;;7.53;94.14;101124.05;105559;1250;73532;-62
2023/05/07 02:29:14;;;;;;;10.00;6.80;;;;;;;7.50;94.08;101124.09;105538;1255;69190;-62
2023/05/07 02:31:42;;;;;;;9.10;6.60;;;;;;;7.49;93.95;101125.67;105492;1250;69129;-62
2023/05/07 02:34:11;;;;;;;10.00;6.70;;;;;;;7.47;94.27;101125.88;105761;1254;74692;-62
2023/05/07 02:36:40;;;;;;;9.90;6.70;;;;;;;7.46;94.04;101130.58;105532;1256;83620;-62
2023/05/07 02:39:12;;;;;;;7.90;6.40;;;;;;;7.43;94.04;101128.54;105614;1251;72795;-62
2023/05/07 02:41:41;;;;;;;7.20;6.40;;;;;;;7.45;94.35;101129.73;105668;1251;69699;-62
2023/05/07 02:44:09;;;;;;;9.80;6.30;;;;;;;7.46;94.37;101130.23;105517;1250;69075;-62
2023/05/07 02:46:38;;;;;;;8.40;6.50;;;;;;;7.47;94.45;101130.39;105697;1255;75041;-62
2023/05/07 02:49:09;;;;;;;7.90;6.60;;;;;;;7.50;94.70;101130.89;105782;1250;83505;-62
2023/05/07 02:51:37;;;;;;;8.40;7.10;;;;;;;7.51;94.40;101129.48;105664;1250;73392;-62
2023/05/07 02:54:08;;;;;;;9.30;6.90;;;;;;;7.50;94.47;101129.98;105512;1256;69205;-62
2023/05/07 02:56:36;;;;;;;9.40;6.70;;;;;;;7.51;94.43;101130.34;105550;1250;69131;-62
2023/05/07 02:59:05;;;;;;;13.00;6.20;;;;;;;7.53;94.48;101130.84;105446;1250;74020;-62
2023/05/07 03:01:36;;;;;;;9.60;7.40;;;;;;;7.55;94.71;101131.50;105484;1256;83078;-61
2023/05/07 03:04:07;;;;;;;8.00;6.90;;;;;;;7.55;94.19;101128.91;105619;1254;72307;-62
2023/05/07 03:06:35;;;;;;;8.10;6.90;;;;;;;7.55;94.59;101127.69;105458;1250;69144;-62
2023/05/07 03:09:03;;;;;;;11.60;6.70;;;;;;;7.54;94.30;101133.27;105467;1251;69159;-62
2023/05/07 03:11:32;;;;;;;8.80;7.30;;;;;;;7.55;94.42;101130.64;105491;1256;75108;-62
2023/05/07 03:14:00;;;;;;;8.20;6.60;;;;;;;7.53;94.12;101128.06;105657;1251;83844;-62
2023/05/07 03:16:28;;;;;;;7.60;6.80;;;;;;;7.53;94.49;101135.37;105479;1251;73640;-62
2023/05/07 03:18:57;;;;;;;9.70;6.60;;;;;;;7.53;94.23;101137.80;105530;1256;69227;-61
2023/05/07 03:21:26;;;;;;;7.80;6.70;;;;;;;7.53;94.13;101141.63;105801;1250;69075;-62
2023/05/07 03:23:54;;;;;;;11.90;7.20;;;;;;;7.51;94.03;101144.78;105680;1250;74611;-62
2023/05/07 03:26:22;;;;;;;8.70;7.20;;;;;;;7.50;94.08;101151.58;105639;1250;82539;-62
2023/05/07 03:28:51;;;;;;;7.80;6.60;;;;;;;7.48;93.95;101155.43;105635;1256;73134;-62
2023/05/07 03:31:19;;;;;;;10.40;7.40;;;;;;;7.49;94.30;101161.67;105623;1254;69183;-62
2023/05/07 03:33:55;;;;;;;12.10;7.10;;;;;;;7.50;94.24;101165.84;105626;1251;69113;-62
2023/05/07 03:36:26;;;;;;;9.40;7.10;;;;;;;7.50;94.17;101168.62;105610;1256;73872;-62
2023/05/07 03:38:55;;;;;;;11.10;7.30;;;;;;;7.49;94.35;101171.42;105463;1250;83830;-62
2023/05/07 03:41:25;;;;;;;;;;;;;;;7.49;94.16;101178.20;105544;1250;73425;-61
2023/05/07 03:43:55;;;;;;;9.60;6.80;;;;;;;7.48;94.07;101179.95;105573;1251;69197;-62
2023/05/07 03:46:25;;;;;;;9.20;7.00;;;;;;;7.50;94.38;101180.42;105586;1255;69064;-62
2023/05/07 03:48:55;;;;;;;10.20;7.00;;;;;;;7.51;94.22;101182.69;105656;1253;74363;-62
2023/05/07 03:51:23;;;;;;;10.60;6.60;;;;;;;7.51;94.26;101182.35;105527;1250;82543;-62
2023/05/07 03:53:56;;;;;;;10.40;7.30;;;;;;;7.51;94.25;101182.51;105603;1251;73854;-62
2023/05/07 03:56:27;;;;;;;8.10;6.60;;;;;;;7.52;94.37;101187.73;105795;1251;69554;-62
2023/05/07 03:58:57;;;;;;;10.40;7.10;;;;;;;7.52;94.23;101189.46;105713;1251;69069;-62
2023/05/07 04:01:25;;;;;;;9.70;7.20;;;;;;;7.52;94.26;101196.42;105669;1250;75122;-61
2023/05/07 04:03:55;;;;;;;9.90;7.60;;;;;;;7.52;94.34;101201.48;105598;1251;82538;-62
2023/05/07 04:06:25;;;;;;;8.30;7.10;;;;;;;7.51;94.07;101204.08;105583;1255;72296;-61
2023/05/07 04:08:53;;;;;;;10.80;7.20;;;;;;;7.51;94.12;101209.48;105607;1255;69195;-62
2023/05/07 04:11:22;;;;;;;8.00;6.90;;;;;;;7.54;94.23;101209.11;105826;1255;69081;-62
2023/05/07 04:13:50;;;;;;;10.10;7.30;;;;;;;7.55;94.26;101213.26;105674;1256;75080;-61
2023/05/07 04:16:20;;;;;;;;;;;;;;;7.55;94.14;101216.55;105650;1254;83292;-62
2023/05/07 04:18:49;;;;;;;9.80;7.20;;;;;;;7.57;94.51;101217.05;105720;1250;71798;-62
2023/05/07 04:21:19;;;;;;;8.70;7.20;;;;;;;7.58;94.27;101217.03;105701;1250;69144;-61
2023/05/07 04:23:48;;;;;;;8.10;6.90;;;;;;;7.59;93.99;101216.86;105611;1251;69281;-62
2023/05/07 04:26:16;;;;;;;10.20;7.00;;;;;;;7.59;93.95;101221.90;105634;1256;72990;-62
2023/05/07 04:28:45;;;;;;;7.80;6.30;;;;;;;7.60;94.03;101229.55;105570;1251;83720;-62
2023/05/07 04:31:15;;;;;;;9.10;7.40;;;;;;;7.62;94.09;101231.95;105787;1256;73879;-62
2023/05/07 04:33:44;;;;;;;8.50;6.90;;;;;;;7.63;93.99;101232.98;105457;1250;69764;-62
2023/05/07 04:36:14;;;;;;;9.00;7.10;;;;;;;7.66;93.97;101233.49;105619;1250;69872;-62
2023/05/07 04:38:50;;;;;;;10.30;7.10;;;;;;;7.65;94.17;101231.92;105694;1250;74861;-62
2023/05/07 04:41:19;;;;;;;8.80;7.10;;;;;;;7.67;93.91;101235.90;105834;1250;83915;-62
2023/05/07 04:43:47;;;;;;;8.40;6.70;;;;;;;7.67;93.78;101235.55;105563;1256;73872;-62
2023/05/07 04:46:16;;;;;;;10.90;7.10;;;;;;;7.71;93.82;101239.34;105656;1255;69202;-62
2023/05/07 04:48:45;;;;;;;8.20;6.40;;;;;;;7.72;93.76;101240.52;105632;1251;69384;-60
2023/05/07 04:51:13;;;;;;;10.30;6.80;;;;;;;7.75;93.77;101239.65;105499;1256;75201;-60
2023/05/07 04:53:42;;;;;;;14.50;7.20;;;;;;;7.75;93.48;101240.32;105514;1256;82186;-59
2023/05/07 04:56:11;;;;;;;9.30;7.10;;;;;;;7.79;93.76;101243.77;105685;1254;73867;-60
2023/05/07 04:58:42;;;;;;;8.00;6.90;;;;;;;7.82;93.90;101246.34;105659;1254;69143;-60
2023/05/07 05:01:10;;;;;;;11.70;7.70;;;;;;;7.86;93.84;101250.30;105618;1250;69021;-60
2023/05/07 05:03:39;;;;;;;9.00;6.90;;;;;;;7.87;93.78;101253.59;105742;1254;75138;-60
2023/05/07 05:06:08;;;;;;;8.50;7.00;;;;;;;7.90;93.45;101255.45;105686;1251;83497;-60
2023/05/07 05:08:37;;;;;;;10.10;7.50;;;;;;;7.91;93.62;101255.80;105597;1255;73769;-60
2023/05/07 05:11:05;;;;;;;10.50;7.40;;;;;;;7.94;93.60;101254.38;105634;1250;69168;-60
2023/05/07 05:13:35;;;;;;;7.60;6.70;;;;;;;7.97;93.46;101248.23;105607;1251;69237;-60
2023/05/07 05:16:10;;;;;;;9.00;7.00;;;;;;;7.99;93.26;101253.61;105634;1253;74306;-60
2023/05/07 05:18:38;;;;;;;9.90;7.90;;;;;;;8.05;93.35;101260.84;105580;1251;83869;-60
2023/05/07 05:21:08;;;;;;;11.70;8.40;;;;;;;8.06;93.18;101260.83;105585;1256;73825;-60
2023/05/07 05:23:36;;;;;;;10.10;7.40;;;;;;;8.10;93.23;101263.23;105579;1256;69223;-60
2023/05/07 05:26:05;;;;;;;10.10;8.00;;;;;;;8.12;93.08;101262.84;105764;1256;69138;-62
2023/05/07 05:28:33;;;;;;;9.40;8.20;;;;;;;8.10;93.01;101264.78;105704;1251;74565;-62
2023/05/07 05:31:03;;;;;;;9.50;8.10;;;;;;;8.11;92.86;101262.33;105677;1251;82565;-62
2023/05/07 05:33:33;;;;;;;10.40;8.50;;;;;;;8.12;92.73;101264.93;105675;1253;73931;-61
2023/05/07 05:36:04;;;;;;;11.10;7.90;;;;;;;8.14;92.55;101267.69;105485;1250;180213;-61
2023/05/07 05:38:33;;;;;;;11.80;8.50;;;;;;;8.16;92.68;101269.05;105686;1254;69112;-61
2023/05/07 05:41:02;;;;;;;11.90;9.00;;;;;;;8.20;92.45;101272.84;105445;1256;75103;-61
2023/05/07 05:43:30;;;;;;;9.80;8.40;;;;;;;8.22;92.44;101270.02;105702;1255;82530;-61
2023/05/07 05:45:59;;;;;;;12.00;8.70;;;;;;;8.26;92.32;101272.22;105598;1251;72880;-47
2023/05/07 05:48:29;;;;;;;10.10;7.80;;;;;;;8.29;91.96;101277.26;105624;1256;70009;-47
2023/05/07 05:50:58;;;;;;;13.70;8.70;;;;;;;8.31;92.06;101276.36;105714;1251;69864;-47
2023/05/07 05:53:26;;;;;;;11.50;8.50;;;;;;;8.34;92.08;101281.00;105537;1256;74895;-47
2023/05/07 05:55:54;;;;;;;11.80;8.80;;;;;;;8.40;92.17;101283.74;105576;1250;82567;-47
2023/05/07 05:58:23;;;;;;;13.00;8.70;;;;;;;8.39;91.72;101285.66;105448;1256;72848;-47
2023/05/07 06:00:56;;;;;;;11.30;8.60;;;;;;;8.40;91.82;101282.36;105775;1251;69984;-47
2023/05/07 06:03:25;;;;;;;11.00;8.30;;;;;;;8.44;92.06;101288.55;105700;1250;69965;-47
2023/05/07 06:05:55;;;;;;;11.00;8.50;;;;;;;8.46;92.01;101290.80;105538;1256;73886;-47
2023/05/07 06:08:24;;;;;;;11.80;8.90;;;;;;;8.46;91.77;101293.76;105485;1256;83318;-46
2023/05/07 06:10:52;;;;;;;15.80;9.50;;;;;;;8.45;91.32;101295.33;105428;1253;72794;-47
2023/05/07 06:13:20;;;;;;;12.00;9.10;;;;;;;8.42;91.23;101298.34;105623;1255;70017;-47
2023/05/07 06:15:51;;;;;;;11.70;8.80;;;;;;;8.39;91.21;101297.16;105697;1250;69884;-46
2023/05/07 06:18:19;;;;;;;11.00;8.70;;;;;;;8.39;91.34;101299.06;105557;1251;74841;-46
2023/05/07 06:20:47;;;;;;;11.70;9.30;;;;;;;8.41;91.81;101303.23;105584;1256;83720;-46
2023/05/07 06:23:23;;;;;;;12.90;9.10;;;;;;;8.44;91.55;101307.02;105606;1254;73114;-47
2023/05/07 06:25:51;;;;;;;14.20;9.70;;;;;;;8.41;91.05;101314.55;105663;1255;69991;-46
2023/05/07 06:28:23;;;;;;;12.60;9.60;;;;;;;8.37;90.94;101315.27;105626;1256;69903;-47
2023/05/07 06:30:52;;;;;;;11.10;9.30;;;;;;;8.34;90.78;101320.20;105868;1255;74941;-46
2023/05/07 06:33:20;;;;;;;9.90;8.40;;;;;;;8.30;90.61;101320.06;105466;1256;83384;-47
2023/05/07 06:35:48;;;;;;;11.10;9.00;;;;;;;8.26;90.53;101322.20;105617;1254;73727;-45
2023/05/07 06:38:17;;;;;;;13.20;8.80;;;;;;;8.22;90.29;101321.39;105612;1250;69867;-47
2023/05/07 06:40:49;;;;;;;11.00;8.40;;;;;;;8.18;90.22;101323.00;105695;1255;69983;-47
2023/05/07 06:43:17;;;;;;;10.00;8.30;;;;;;;8.13;90.38;101323.77;105728;1255;75005;-47
2023/05/07 06:45:55;;;;;;;10.60;8.60;;;;;;;8.11;90.40;101329.35;105718;1254;83133;-46
2023/05/07 06:48:23;;;;;;;11.90;8.60;;;;;;;8.11;90.65;101330.73;105461;1256;73661;-47
2023/05/07 06:51:00;;;;;;;10.20;8.10;;;;;;;8.15;90.74;101331.75;105622;1251;70076;-47
2023/05/07 06:53:30;;;;;;;11.20;8.00;;;;;;;8.19;90.90;101333.62;105619;1256;69931;-46
2023/05/07 06:55:59;;;;;;;8.20;6.80;;;;;;;8.25;90.64;101331.27;105757;1255;75100;-47
2023/05/07 06:58:28;;;;;;;8.50;6.90;;;;;;;8.30;90.49;101334.86;105534;1256;83363;-48
2023/05/07 07:00:56;;;;;;;9.00;7.20;;;;;;;8.32;90.30;101337.98;105635;1255;73582;-47
2023/05/07 07:03:24;;;;;;;8.10;6.40;;;;;;;8.35;90.29;101339.33;105705;1251;70097;-47
2023/05/07 07:05:55;;;;;;;8.60;6.90;;;;;;;8.39;90.08;101340.17;105811;1251;69881;-46
2023/05/07 07:08:24;;;;;;;8.90;6.60;;;;;;;8.41;89.98;101344.51;105768;1254;74344;-48
2023/05/07 07:10:53;;;;;;;9.10;7.70;;;;;;;8.45;89.73;101346.71;105817;1249;83236;-46
2023/05/07 07:13:21;;;;;;;10.00;7.20;;;;;;;8.45;89.59;101351.77;105712;1254;72766;-46
2023/05/07 07:15:49;;;;;;;8.20;6.80;;;;;;;8.47;89.44;101358.02;105940;1251;69909;-46
2023/05/07 07:18:18;;;;;;;7.90;7.10;;;;;;;8.52;89.48;101359.18;105959;1253;70018;-45
2023/05/07 07:20:48;;;;;;;9.40;7.20;;;;;;;8.53;89.48;101369.27;105735;1256;72773;-46
2023/05/07 07:23:16;;;;;;;11.50;7.20;;;;;;;8.58;89.72;101369.38;105662;1256;83321;-44
2023/05/07 07:25:44;;;;;;;8.10;7.30;;;;;;;8.62;89.47;101369.84;105812;1256;73940;-45
2023/05/07 07:28:13;;;;;;;9.20;6.80;;;;;;;8.66;89.50;101370.31;105792;1253;69972;-45
2023/05/07 07:30:41;;;;;;;8.30;7.00;;;;;;;8.71;89.25;101372.50;105734;1251;70640;-45
2023/05/07 07:33:10;;;;;;;8.90;7.50;;;;;;;8.82;89.44;101372.70;105769;1253;74750;-45
2023/05/07 07:35:39;;;;;;;8.90;7.20;;;;;;;8.88;89.28;101376.63;105748;1253;82476;-45
2023/05/07 07:38:08;;;;;;;12.00;8.20;;;;;;;8.93;89.14;101374.96;105915;1253;73496;-46
2023/05/07 07:40:36;;;;;;;8.80;7.20;;;;;;;8.93;88.92;101373.07;105738;1252;70660;-46
2023/05/07 07:43:05;;;;;;;8.50;7.50;;;;;;;8.93;88.66;101375.33;105911;1254;69803;-48
2023/05/07 07:45:34;;;;;;;10.90;8.50;;;;;;;8.94;88.58;101373.05;105707;1251;73826;-47
2023/05/07 07:48:03;;;;;;;8.50;7.60;;;;;;;8.94;88.39;101374.63;105855;1250;82589;-48
2023/05/07 07:50:33;;;;;;;11.80;6.90;;;;;;;8.92;88.09;101375.17;105680;1256;73815;-47
2023/05/07 07:53:14;;;;;;;9.00;6.70;;;;;;;8.94;88.09;101378.81;105771;1253;69978;-45
2023/05/07 07:55:42;;;;;;;8.30;6.20;;;;;;;9.01;88.08;101378.70;105883;1251;70187;-44
2023/05/07 07:58:13;;;;;;;7.60;6.30;;;;;;;9.09;88.26;101379.96;105862;1251;74908;-45
2023/05/07 08:00:41;;;;;;;9.10;6.60;;;;;;;9.17;88.33;101379.15;105685;1256;83493;-46
2023/05/07 08:03:11;;;;;;;8.10;6.20;;;;;;;9.24;88.00;101380.44;105810;1251;72985;-45
2023/05/07 08:05:43;;;;;;;11.70;6.90;;;;;;;9.25;87.80;101384.09;105913;1263;70014;-46
2023/05/07 08:08:11;;;;;;;9.90;6.50;;;;;;;9.22;87.69;101385.53;105659;1252;69903;-44
2023/05/07 08:10:40;;;;;;;7.30;5.90;;;;;;;9.23;87.57;101386.91;106056;1253;75020;-44
2023/05/07 08:13:14;;;;;;;8.90;6.50;;;;;;;9.26;87.63;101384.23;105767;1251;83528;-45
2023/05/07 08:15:43;;;;;;;8.90;6.90;;;;;;;9.31;87.60;101389.05;106008;1256;73074;-45
2023/05/07 08:18:11;;;;;;;8.80;5.70;;;;;;;9.32;87.12;101386.59;105852;1254;69983;-46
2023/05/07 08:20:41;;;;;;;7.50;5.70;;;;;;;9.33;86.78;101386.75;105954;1250;69886;-46
2023/05/07 08:23:12;;;;;;;7.80;6.20;;;;;;;9.34;86.72;101394.92;105812;1254;75113;-46
2023/05/07 08:25:42;;;;;;;7.70;6.10;;;;;;;9.36;86.84;101395.42;105844;1253;84412;-46
2023/05/07 08:28:11;;;;;;;7.60;5.70;;;;;;;9.31;86.30;101401.61;105812;1257;74474;-46
2023/05/07 08:30:40;;;;;;;8.70;5.50;;;;;;;9.28;86.44;101401.14;105852;1253;69973;-45
2023/05/07 08:33:09;;;;;;;7.50;5.50;;;;;;;9.31;86.61;101404.05;105724;1251;70021;-48
2023/05/07 08:35:38;;;;;;;8.70;5.90;;;;;;;9.36;86.45;101406.41;105751;1254;74961;-45
2023/05/07 08:38:07;;;;;;;6.50;5.80;;;;;;;9.40;86.46;101408.60;105774;1253;84005;-46
2023/05/07 08:40:38;;;;;;;7.00;5.60;;;;;;;9.44;86.61;101407.67;105848;1254;73877;-45
2023/05/07 08:43:12;;;;;;;7.90;5.90;;;;;;;9.49;86.14;101404.98;105717;1252;69975;-47
2023/05/07 08:45:41;;;;;;;7.50;6.00;;;;;;;9.53;85.83;101415.21;105719;1256;70455;-46
2023/05/07 08:48:17;;;;;;;6.90;5.50;;;;;;;9.56;86.00;101422.15;106007;1253;75071;-45
2023/05/07 08:50:53;;;;;;;7.10;5.80;;;;;;;9.58;85.78;101425.23;105763;1253;83529;-45
2023/05/07 08:53:21;;;;;;;7.40;5.80;;;;;;;9.63;85.57;101422.55;105707;1253;72782;-46
2023/05/07 08:55:51;;;;;;;6.70;5.80;;;;;;;9.66;85.21;101426.68;105782;1252;69912;-46
2023/05/07 08:58:20;;;;;;;7.20;5.50;;;;;;;9.59;84.94;101427.31;105947;1253;69903;-56
2023/05/07 09:00:48;;;;;;;8.70;6.20;;;;;;;9.56;84.99;101427.88;106007;1253;75032;-47
2023/05/07 09:03:17;;;;;;;10.70;6.10;;;;;;;9.63;85.33;101431.63;105783;1257;83760;-46
2023/05/07 09:05:48;;;;;;;6.90;5.50;;;;;;;9.66;85.04;101432.96;105667;1254;72762;-46
2023/05/07 09:08:17;;;;;;;6.30;5.50;;;;;;;9.72;84.90;101432.34;105825;1257;69996;-45
2023/05/07 09:10:48;;;;;;;7.80;5.70;;;;;;;9.79;84.60;101434.48;105663;1251;69995;-48
2023/05/07 09:13:17;;;;;;;6.30;5.70;;;;;;;9.91;84.84;101434.29;105802;1253;75165;-46
2023/05/07 09:15:47;;;;;;;;;;;;;;;10.05;84.86;101434.90;106044;1253;83371;-46
2023/05/07 09:18:15;;;;;;;6.60;5.50;;;;;;;10.16;84.55;101435.23;105748;1253;73109;-46
2023/05/07 09:20:44;;;;;;;6.30;5.10;;;;;;;10.25;84.29;101431.90;105639;1257;69983;-47
2023/05/07 09:23:13;;;;;;;8.70;5.60;;;;;;;10.26;83.92;101435.38;105598;1256;70322;-48
2023/05/07 09:25:43;;;;;;;5.70;4.90;;;;;;;10.23;83.75;101433.35;105845;1256;75007;-47
2023/05/07 09:28:19;;;;;;;6.80;5.50;;;;;;;10.30;83.84;101433.76;105888;1255;83371;-46
2023/05/07 09:30:47;;;;;;;7.00;5.60;;;;;;;10.50;83.76;101431.63;105783;1253;73932;-46
2023/05/07 09:33:16;;;;;;;7.00;5.70;;;;;;;10.84;84.23;101436.85;105737;1251;69970;-45
2023/05/07 09:35:51;;;;;;;8.00;5.70;;;;;;;11.20;84.14;101432.20;105663;1256;69939;-48
2023/05/07 09:38:21;;;;;;;7.50;5.00;;;;;;;11.38;83.00;101432.14;105832;1253;74859;-46
2023/05/07 09:41:08;;;;;;;5.60;5.10;;;;;;;11.39;82.24;101433.34;105772;1253;83357;-46
2023/05/07 09:43:54;;;;;;;5.80;4.90;;;;;;;11.53;82.33;101433.88;105822;1254;73708;-47
2023/05/07 09:46:31;;;;;;;6.90;5.40;;;;;;;11.66;82.03;101430.93;105755;1251;70529;-46
2023/05/07 09:49:02;;;;;;;8.80;5.40;;;;;;;11.67;81.74;101435.64;106005;1254;70714;-45
2023/05/07 09:51:47;;;;;;;6.70;5.30;;;;;;;11.64;81.11;101441.14;105842;1257;73955;-47
2023/05/07 09:54:16;;;;;;;7.10;5.20;;;;;;;11.48;80.70;101445.19;105770;1253;83654;-46
2023/05/07 09:56:48;;;;;;;6.70;5.10;;;;;;;11.42;80.60;101447.98;105698;1255;73435;-46
2023/05/07 09:59:17;;;;;;;6.80;5.20;;;;;;;11.30;80.28;101445.09;105811;1251;69965;-46
2023/05/07 10:01:45;;;;;;;6.80;5.20;;;;;;;11.20;80.14;101446.55;105735;1253;69906;-46
2023/05/07 10:04:14;;;;;;;5.40;4.80;;;;;;;11.14;80.13;101445.64;105937;1254;73886;-46
2023/05/07 10:06:44;;;;;;;5.50;4.90;;;;;;;11.08;79.88;101445.96;105840;1256;83759;-46
2023/05/07 10:09:13;;;;;;;5.90;4.70;;;;;;;11.15;80.05;101449.64;105779;1254;73841;-46
2023/05/07 10:11:42;;;;;;;5.30;4.60;;;;;;;11.15;79.39;101451.92;105568;1256;70008;-49
2023/05/07 10:14:11;;;;;;;8.00;4.90;;;;;;;11.13;79.41;101458.09;105963;1257;69977;-46
2023/05/07 10:16:41;;;;;;;5.30;4.10;;;;;;;11.09;79.29;101460.97;105759;1251;74841;-46
2023/05/07 10:19:13;;;;;;;7.50;4.70;;;;;;;11.04;78.93;101467.19;105641;1251;82611;-46
2023/05/07 10:21:55;;;;;;;4.80;4.10;;;;;;;10.96;78.67;101468.59;105794;1251;73881;-46
2023/05/07 10:24:29;;;;;;;5.00;4.30;;;;;;;10.87;78.56;101471.41;105700;1255;69963;-46
2023/05/07 10:26:58;;;;;;;5.00;4.40;;;;;;;10.78;78.25;101472.46;105906;1251;70780;-45
2023/05/07 10:29:26;;;;;;;7.70;5.00;;;;;;;10.72;78.52;101475.59;105806;1251;73665;-46
2023/05/07 10:31:56;;;;;;;5.50;5.00;;;;;;;10.74;78.53;101472.58;105744;1254;83747;-45
2023/05/07 10:34:30;;;;;;;;;;;;;;;10.75;78.34;101472.71;105895;1254;72660;-45
2023/05/07 10:36:58;;;;;;;5.80;5.20;;;;;;;10.72;78.16;101474.02;105778;1254;70105;-46
2023/05/07 10:39:27;;;;;;;5.20;4.50;;;;;;;10.70;78.19;101472.45;105869;1251;70397;-46
2023/05/07 10:41:55;;;;;;;5.10;4.50;;;;;;;10.75;78.53;101475.15;105810;1256;73051;-47
2023/05/07 10:44:28;;;;;;;5.90;4.90;;;;;;;10.79;78.43;101470.88;105944;1251;82422;-46
2023/05/07 10:47:13;;;;;;;4.60;4.10;;;;;;;10.83;78.39;101467.64;105664;1253;72704;-45
2023/05/07 10:49:44;;;;;;;6.40;4.70;;;;;;;10.91;78.33;101465.02;105771;1255;70015;-46
2023/05/07 10:52:26;;;;;;;5.50;4.90;;;;;;;10.95;78.08;101463.36;105837;1253;69914;-46
2023/05/07 10:55:17;;;;;;;5.80;4.30;;;;;;;10.99;77.85;101461.36;105754;1253;74166;-46
2023/05/07 10:58:21;;;;;;;6.00;4.50;;;;;;;11.03;77.85;101461.09;105823;1251;84099;-46
2023/05/07 11:01:51;;;;;;;4.40;4.00;;;;;;;11.10;77.68;101461.65;105727;1253;72962;-46
2023/05/07 11:04:27;;;;;;;5.50;4.00;;;;;;;11.03;77.15;101469.35;105795;1252;70302;-46
2023/05/07 11:07:29;;;;;;;4.50;4.00;;;;;;;11.01;77.36;101468.85;105691;1251;70427;-46
2023/05/07 11:10:04;;;;;;;4.50;4.00;;;;;;;11.05;76.92;101473.48;105759;1249;74919;-47
2023/05/07 11:12:55;;;;;;;6.10;4.70;;;;;;;11.10;76.80;101474.07;105742;1255;83154;-45
2023/05/07 11:15:35;;;;;;;5.20;4.20;;;;;;;11.13;76.83;101478.71;105753;1254;72700;-46
2023/05/07 11:18:04;;;;;;;5.10;3.60;;;;;;;11.11;76.60;101481.91;105701;1254;70023;-45
2023/05/07 11:20:46;;;;;;;4.20;3.70;;;;;;;11.07;76.71;101485.48;105616;1256;69951;-46
2023/05/07 11:23:37;;;;;;;7.20;3.50;;;;;;;11.03;76.61;101484.89;105736;1253;75061;-46
2023/05/07 11:26:18;;;;;;;3.90;3.40;;;;;;;11.03;76.60;101486.48;105700;1253;83652;-47
2023/05/07 11:28:47;;;;;;;4.60;3.50;;;;;;;11.04;76.55;101486.62;105798;1254;73792;-46
2023/05/07 11:31:21;;;;;;;4.80;3.40;;;;;;;11.12;76.67;101487.31;105659;1254;70079;-47
2023/05/07 11:33:49;;;;;;;3.80;3.20;;;;;;;11.27;76.89;101492.06;105752;1251;70075;-46
2023/05/07 11:36:21;;;;;;;4.00;3.30;;;;;;;11.41;76.64;101493.84;105747;1255;74911;-46
2023/05/07 11:38:51;;;;;;;5.00;3.30;;;;;;;11.50;76.22;101496.09;105795;1254;83023;-46
2023/05/07 11:41:20;;;;;;;3.80;3.10;;;;;;;11.50;75.84;101497.30;105780;1251;73146;-46
2023/05/07 11:43:56;;;;;;;4.20;3.60;;;;;;;11.38;75.44;101496.53;105750;1250;69890;-46
2023/05/07 11:46:24;;;;;;;3.90;3.50;;;;;;;11.23;75.16;101497.05;105788;1250;69876;-46
2023/05/07 11:48:53;;;;;;;4.40;3.50;;;;;;;11.12;75.47;101500.25;105837;1251;73932;-47
2023/05/07 11:51:23;;;;;;;5.40;3.40;;;;;;;11.05;75.19;101499.55;105664;1255;83550;-49
2023/05/07 11:53:51;;;;;;;;;;;;;;;11.00;75.42;101501.23;105804;1251;72804;-47
2023/05/07 11:56:20;;;;;;;3.90;3.50;;;;;;;11.02;75.68;101499.77;105935;1254;70135;-47
2023/05/07 11:58:49;;;;;;;4.50;3.40;;;;;;;11.11;75.64;101497.66;105794;1252;70033;-46
2023/05/07 12:01:18;;;;;;;3.60;3.30;;;;;;;11.23;75.69;101498.27;105787;1252;74900;-46
2023/05/07 12:03:46;;;;;;;3.60;3.30;;;;;;;11.41;75.43;101497.33;105872;1254;83608;-47
2023/05/07 12:06:16;;;;;;;3.80;3.30;;;;;;;11.60;75.22;101499.17;105704;1253;73900;-47
2023/05/07 12:08:45;;;;;;;5.70;3.20;;;;;;;11.84;75.05;101495.11;105811;1254;69912;-46